Time,TemperatureF,DewpointF,PressureIn,WindDirection,WindDirectionDegrees,WindSpeedMPH,WindSpeedGustMPH,Humidity,HourlyPrecipIn,Conditions,Clouds,dailyrainin,SolarRadiationWatts/m^2,SoftwareType,DateUTC
2013-10-20 00:00:00,53.3,50.2,29.79,SW,227,2.0,6.0,89,0.02,,---,0.02,0.00,VWS V14.01,2013-10-20 04:00:00,
2013-10-20 00:01:00,52.4,50.2,29.77,SW,225,0.0,3.0,92,0.00,,---,0.00,0.00,VWS V14.01,2013-10-20 04:01:00,
2013-10-20 00:06:00,52.4,50.2,29.77,NW,306,0.0,3.0,92,0.00,,---,0.00,0.00,VWS V14.01,2013-10-20 04:06:00,
2013-10-20 00:11:00,52.4,50.2,29.77,NW,306,0.0,3.0,92,0.00,,---,0.00,0.00,VWS V14.01,2013-10-20 04:11:00,
2013-10-20 00:16:00,52.4,50.2,29.77,WNW,284,2.0,6.0,92,0.00,,---,0.00,0.00,VWS V14.01,2013-10-20 04:16:00,
2013-10-20 00:21:00,52.5,50.2,29.77,WNW,284,0.0,6.0,92,0.00,,---,0.00,0.00,VWS V14.01,2013-10-20 04:21:00,
2013-10-20 00:26:00,52.5,50.2,29.77,WSW,250,0.0,6.0,92,0.00,,---,0.00,0.00,VWS V14.01,2013-10-20 04:26:00,
2013-10-20 00:30:00,52.7,50.2,29.78,NW,312,0.0,6.0,91,0.02,,---,0.02,0.00,VWS V14.01,2013-10-20 04:30:00,
2013-10-20 00:31:00,52.5,50.2,29.77,WSW,250,0.0,0.0,92,0.00,,---,0.00,0.00,VWS V14.01,2013-10-20 04:31:00,
2013-10-20 00:36:00,52.5,50.2,29.77,WSW,250,0.0,2.0,92,0.00,,---,0.00,0.00,VWS V14.01,2013-10-20 04:36:00,
2013-10-20 00:41:00,52.5,50.2,29.77,WSW,250,0.0,3.0,92,0.00,,---,0.00,0.00,VWS V14.01,2013-10-20 04:41:00,
2013-10-20 00:46:00,52.6,50.3,29.77,SW,229,0.0,4.0,92,0.00,,---,0.00,0.00,VWS V14.01,2013-10-20 04:46:00,
2013-10-20 00:51:00,52.6,50.3,29.77,SW,229,0.0,4.0,92,0.00,,---,0.00,0.00,VWS V14.01,2013-10-20 04:51:00,
2013-10-20 00:56:00,52.6,50.3,29.77,WNW,292,1.0,4.0,92,0.00,,---,0.00,0.00,VWS V14.01,2013-10-20 04:56:00,
2013-10-20 01:00:00,52.4,50.2,29.77,SW,225,3.0,5.0,92,0.02,,---,0.02,0.00,VWS V14.01,2013-10-20 05:00:00,
2013-10-20 01:01:00,52.6,50.3,29.77,WNW,292,2.0,4.0,92,0.00,,---,0.00,0.00,VWS V14.01,2013-10-20 05:01:00,
2013-10-20 01:06:00,52.5,50.2,29.77,WNW,292,2.0,4.0,92,0.00,,---,0.00,0.00,VWS V14.01,2013-10-20 05:06:00,
2013-10-20 01:11:00,52.4,50.4,29.76,WNW,292,1.0,4.0,93,0.00,,---,0.00,0.00,VWS V14.01,2013-10-20 05:11:00,
2013-10-20 01:16:00,52.3,50.3,29.77,WNW,292,0.0,4.0,93,0.00,,---,0.00,0.00,VWS V14.01,2013-10-20 05:16:00,
2013-10-20 01:21:00,52.2,50.2,29.77,WNW,292,0.0,4.0,93,0.00,,---,0.00,0.00,VWS V14.01,2013-10-20 05:21:00,
2013-10-20 01:26:00,52.2,50.2,29.76,WNW,292,3.0,4.0,93,0.00,,---,0.00,0.00,VWS V14.01,2013-10-20 05:26:00,
2013-10-20 01:30:00,52.5,50.2,29.77,WSW,250,0.0,6.0,92,0.00,,---,0.00,0.00,VWS V14.01,2013-10-20 05:30:00,
2013-10-20 01:31:00,52.1,50.4,29.76,WNW,292,0.0,0.0,94,0.00,,---,0.00,0.00,VWS V14.01,2013-10-20 05:31:00,
2013-10-20 01:36:00,51.9,50.2,29.76,WNW,292,0.0,2.0,94,0.00,,---,0.00,0.00,VWS V14.01,2013-10-20 05:36:00,
2013-10-20 01:41:00,51.8,50.1,29.76,WSW,251,2.0,4.0,94,0.00,,---,0.00,0.00,VWS V14.01,2013-10-20 05:41:00,
2013-10-20 01:46:00,51.7,50.0,29.76,WSW,251,0.0,4.0,94,0.00,,---,0.00,0.00,VWS V14.01,2013-10-20 05:46:00,
2013-10-20 01:51:00,51.5,49.8,29.76,WSW,251,0.0,4.0,94,0.00,,---,0.00,0.00,VWS V14.01,2013-10-20 05:51:00,
2013-10-20 01:56:00,51.4,49.7,29.76,WSW,251,0.0,4.0,94,0.00,,---,0.00,0.00,VWS V14.01,2013-10-20 05:56:00,
2013-10-20 02:00:00,52.6,50.3,29.77,WNW,292,0.0,4.0,92,0.00,,---,0.00,0.00,VWS V14.01,2013-10-20 06:00:00,
2013-10-20 02:01:00,51.4,49.7,29.76,SSW,200,0.0,0.0,94,0.00,,---,0.00,0.00,VWS V14.01,2013-10-20 06:01:00,
2013-10-20 02:06:00,51.4,50.0,29.76,SW,229,0.0,3.0,95,0.00,,---,0.00,0.00,VWS V14.01,2013-10-20 06:06:00,
2013-10-20 02:11:00,51.4,50.0,29.76,WSW,258,0.0,3.0,95,0.00,,---,0.00,0.00,VWS V14.01,2013-10-20 06:11:00,
2013-10-20 02:16:00,51.4,50.0,29.76,WSW,258,0.0,3.0,95,0.00,,---,0.00,0.00,VWS V14.01,2013-10-20 06:16:00,
2013-10-20 02:21:00,51.4,50.0,29.76,WSW,258,0.0,3.0,95,0.00,,---,0.00,0.00,VWS V14.01,2013-10-20 06:21:00,
2013-10-20 02:26:00,51.5,50.1,29.76,WSW,258,0.0,3.0,95,0.00,,---,0.00,0.00,VWS V14.01,2013-10-20 06:26:00,
2013-10-20 02:30:00,52.1,50.4,29.76,WNW,292,0.0,4.0,94,0.00,,---,0.00,0.00,VWS V14.01,2013-10-20 06:30:00,
2013-10-20 02:31:00,51.5,50.1,29.76,WNW,282,0.0,0.0,95,0.00,,---,0.00,0.00,VWS V14.01,2013-10-20 06:31:00,
2013-10-20 02:36:00,51.5,50.1,29.77,WNW,282,0.0,2.0,95,0.00,,---,0.00,0.00,VWS V14.01,2013-10-20 06:36:00,
2013-10-20 02:41:00,51.5,50.1,29.77,WNW,282,0.0,2.0,95,0.00,,---,0.00,0.00,VWS V14.01,2013-10-20 06:41:00,
2013-10-20 02:46:00,51.5,50.1,29.77,WNW,282,0.0,4.0,95,0.00,,---,0.00,0.00,VWS V14.01,2013-10-20 06:46:00,
2013-10-20 02:51:00,51.4,50.0,29.77,WNW,282,0.0,4.0,95,0.00,,---,0.00,0.00,VWS V14.01,2013-10-20 06:51:00,
2013-10-20 02:56:00,51.4,49.7,29.77,WNW,282,0.0,4.0,94,0.00,,---,0.00,0.00,VWS V14.01,2013-10-20 06:56:00,
2013-10-20 03:00:00,51.4,49.7,29.76,SSW,200,0.0,4.0,94,0.00,,---,0.00,0.00,VWS V14.01,2013-10-20 07:00:00,
2013-10-20 03:01:00,51.3,49.6,29.78,WNW,282,0.0,0.0,94,0.00,,---,0.00,0.00,VWS V14.01,2013-10-20 07:01:00,
2013-10-20 03:06:00,51.3,49.6,29.78,WNW,282,0.0,0.0,94,0.00,,---,0.00,0.00,VWS V14.01,2013-10-20 07:06:00,
2013-10-20 03:11:00,51.3,49.6,29.78,WNW,282,0.0,0.0,94,0.00,,---,0.00,0.00,VWS V14.01,2013-10-20 07:11:00,
2013-10-20 03:16:00,51.2,49.5,29.78,WNW,282,0.0,0.0,94,0.00,,---,0.00,0.00,VWS V14.01,2013-10-20 07:16:00,
2013-10-20 03:21:00,51.1,49.4,29.78,WNW,282,0.0,0.0,94,0.00,,---,0.00,0.00,VWS V14.01,2013-10-20 07:21:00,
2013-10-20 03:26:00,51.0,49.3,29.78,WNW,282,0.0,0.0,94,0.00,,---,0.00,0.00,VWS V14.01,2013-10-20 07:26:00,
2013-10-20 03:30:00,51.5,50.1,29.76,WNW,282,0.0,3.0,95,0.00,,---,0.00,0.00,VWS V14.01,2013-10-20 07:30:00,
2013-10-20 03:31:00,50.7,48.8,29.79,WNW,282,0.0,0.0,93,0.00,,---,0.00,0.00,VWS V14.01,2013-10-20 07:31:00,
2013-10-20 03:36:00,50.5,48.8,29.79,WNW,282,0.0,0.0,94,0.00,,---,0.00,0.00,VWS V14.01,2013-10-20 07:36:00,
2013-10-20 03:41:00,50.2,48.5,29.79,WNW,282,0.0,0.0,94,0.00,,---,0.00,0.00,VWS V14.01,2013-10-20 07:41:00,
2013-10-20 03:46:00,49.9,48.2,29.80,WNW,282,0.0,0.0,94,0.00,,---,0.00,0.00,VWS V14.01,2013-10-20 07:46:00,
2013-10-20 03:51:00,49.6,48.0,29.80,WNW,282,0.0,0.0,94,0.00,,---,0.00,0.00,VWS V14.01,2013-10-20 07:51:00,
2013-10-20 03:56:00,49.2,47.5,29.80,WNW,282,0.0,0.0,94,0.00,,---,0.00,0.00,VWS V14.01,2013-10-20 07:56:00,
2013-10-20 04:00:00,51.4,49.7,29.78,WNW,282,0.0,4.0,94,0.00,,---,0.00,0.00,VWS V14.01,2013-10-20 08:00:00,
2013-10-20 04:01:00,48.9,47.2,29.80,WNW,282,0.0,0.0,94,0.00,,---,0.00,0.00,VWS V14.01,2013-10-20 08:01:00,
2013-10-20 04:06:00,48.6,47.0,29.80,WNW,282,0.0,0.0,94,0.00,,---,0.00,0.00,VWS V14.01,2013-10-20 08:06:00,
2013-10-20 04:11:00,48.2,46.6,29.80,WNW,282,0.0,0.0,94,0.00,,---,0.00,0.00,VWS V14.01,2013-10-20 08:11:00,
2013-10-20 04:16:00,47.8,46.2,29.80,WNW,282,0.0,0.0,94,0.00,,---,0.00,0.00,VWS V14.01,2013-10-20 08:16:00,
2013-10-20 04:21:00,47.6,46.0,29.81,WNW,282,2.0,2.0,94,0.00,,---,0.00,0.00,VWS V14.01,2013-10-20 08:21:00,
2013-10-20 04:26:00,47.0,44.8,29.81,East,94,0.0,5.0,92,0.00,,---,0.00,0.00,VWS V14.01,2013-10-20 08:26:00,
2013-10-20 04:30:00,50.8,49.1,29.78,WNW,282,0.0,0.0,94,0.00,,---,0.00,0.00,VWS V14.01,2013-10-20 08:30:00,
2013-10-20 04:31:00,46.7,43.9,29.81,East,94,0.0,0.0,90,0.00,,---,0.00,0.00,VWS V14.01,2013-10-20 08:31:00,
2013-10-20 04:36:00,46.5,43.1,29.81,East,94,1.0,1.0,88,0.00,,---,0.00,0.00,VWS V14.01,2013-10-20 08:36:00,
2013-10-20 04:41:00,46.5,41.9,29.82,WSW,241,0.0,2.0,84,0.00,,---,0.00,0.00,VWS V14.01,2013-10-20 08:41:00,
2013-10-20 04:46:00,46.6,41.4,29.82,NE,55,0.0,4.0,82,0.00,,---,0.00,0.00,VWS V14.01,2013-10-20 08:46:00,
2013-10-20 04:51:00,46.6,40.8,29.82,WSW,246,0.0,4.0,80,0.00,,---,0.00,0.00,VWS V14.01,2013-10-20 08:51:00,
2013-10-20 04:56:00,46.6,40.8,29.82,WSW,247,0.0,4.0,80,0.00,,---,0.00,0.00,VWS V14.01,2013-10-20 08:56:00,
2013-10-20 05:00:00,49.0,47.3,29.80,WNW,282,0.0,0.0,94,0.00,,---,0.00,0.00,VWS V14.01,2013-10-20 09:00:00,
2013-10-20 05:01:00,46.5,40.3,29.83,ENE,60,0.0,0.0,79,0.00,,---,0.00,0.00,VWS V14.01,2013-10-20 09:01:00,
2013-10-20 05:06:00,46.4,39.9,29.83,ENE,60,0.0,0.0,78,0.00,,---,0.00,0.00,VWS V14.01,2013-10-20 09:06:00,
2013-10-20 05:11:00,46.3,39.8,29.83,ENE,60,0.0,0.0,78,0.00,,---,0.00,0.00,VWS V14.01,2013-10-20 09:11:00,
2013-10-20 05:16:00,46.1,39.6,29.83,WSW,256,0.0,5.0,78,0.00,,---,0.00,0.00,VWS V14.01,2013-10-20 09:16:00,
2013-10-20 05:21:00,45.9,39.4,29.83,South,186,0.0,5.0,78,0.00,,---,0.00,0.00,VWS V14.01,2013-10-20 09:21:00,
2013-10-20 05:26:00,45.8,39.7,29.84,South,186,0.0,5.0,79,0.00,,---,0.00,0.00,VWS V14.01,2013-10-20 09:26:00,
2013-10-20 05:30:00,46.7,43.9,29.81,East,94,0.0,5.0,90,0.00,,---,0.00,0.00,VWS V14.01,2013-10-20 09:30:00,
2013-10-20 05:31:00,45.5,39.0,29.84,South,186,0.0,0.0,78,0.00,,---,0.00,0.00,VWS V14.01,2013-10-20 09:31:00,
2013-10-20 05:36:00,45.4,39.0,29.84,WNW,296,0.0,3.0,78,0.00,,---,0.00,0.00,VWS V14.01,2013-10-20 09:36:00,
2013-10-20 05:41:00,45.5,38.7,29.84,WNW,296,0.0,3.0,77,0.00,,---,0.00,0.00,VWS V14.01,2013-10-20 09:41:00,
2013-10-20 05:46:00,45.5,38.7,29.84,NE,45,0.0,3.0,77,0.00,,---,0.00,0.00,VWS V14.01,2013-10-20 09:46:00,
2013-10-20 05:51:00,45.4,38.6,29.84,NE,45,0.0,3.0,77,0.00,,---,0.00,0.00,VWS V14.01,2013-10-20 09:51:00,
2013-10-20 05:56:00,45.1,38.7,29.85,NE,45,0.0,3.0,78,0.00,,---,0.00,0.00,VWS V14.01,2013-10-20 09:56:00,
2013-10-20 06:00:00,46.5,40.3,29.82,ENE,60,0.0,4.0,79,0.00,,---,0.00,0.00,VWS V14.01,2013-10-20 10:00:00,
2013-10-20 06:01:00,44.8,38.7,29.85,West,280,0.0,2.0,79,0.00,,---,0.00,0.00,VWS V14.01,2013-10-20 10:01:00,
2013-10-20 06:06:00,44.6,38.2,29.85,West,280,0.0,2.0,78,0.00,,---,0.00,0.00,VWS V14.01,2013-10-20 10:06:00,
2013-10-20 06:11:00,44.3,38.2,29.85,West,280,0.0,2.0,79,0.00,,---,0.00,0.00,VWS V14.01,2013-10-20 10:11:00,
2013-10-20 06:16:00,44.1,38.3,29.85,West,280,0.0,2.0,80,0.00,,---,0.00,0.00,VWS V14.01,2013-10-20 10:16:00,
2013-10-20 06:21:00,43.7,38.0,29.85,West,280,0.0,2.0,80,0.00,,---,0.00,0.00,VWS V14.01,2013-10-20 10:21:00,
2013-10-20 06:26:00,43.6,37.8,29.85,West,280,0.0,2.0,80,0.00,,---,0.00,0.00,VWS V14.01,2013-10-20 10:26:00,
2013-10-20 06:30:00,45.6,39.2,29.84,South,186,0.0,5.0,78,0.00,,---,0.00,0.00,VWS V14.01,2013-10-20 10:30:00,
2013-10-20 06:31:00,43.3,37.9,29.85,SSW,209,0.0,1.0,81,0.00,,---,0.00,0.00,VWS V14.01,2013-10-20 10:31:00,
2013-10-20 06:36:00,43.0,37.6,29.85,SSW,209,0.0,1.0,81,0.00,,---,0.00,0.00,VWS V14.01,2013-10-20 10:36:00,
2013-10-20 06:41:00,42.9,37.8,29.85,SSW,209,0.0,1.0,82,0.00,,---,0.00,0.00,VWS V14.01,2013-10-20 10:41:00,
2013-10-20 06:46:00,42.7,37.6,29.85,SSW,209,0.0,1.0,82,0.00,,---,0.00,0.00,VWS V14.01,2013-10-20 10:46:00,
2013-10-20 06:51:00,42.4,37.6,29.86,SSW,209,0.0,1.0,83,0.00,,---,0.00,0.00,VWS V14.01,2013-10-20 10:51:00,
2013-10-20 06:56:00,42.3,37.5,29.86,SSW,209,0.0,1.0,83,0.00,,---,0.00,0.00,VWS V14.01,2013-10-20 10:56:00,
2013-10-20 07:00:00,44.9,38.8,29.85,NE,45,0.0,3.0,79,0.00,,---,0.00,0.00,VWS V14.01,2013-10-20 11:00:00,
2013-10-20 07:01:00,42.2,37.4,29.86,SSW,209,0.0,0.0,83,0.00,,---,0.00,0.00,VWS V14.01,2013-10-20 11:01:00,
2013-10-20 07:06:00,41.9,37.1,29.86,SSW,209,0.0,0.0,83,0.00,,---,0.00,0.00,VWS V14.01,2013-10-20 11:06:00,
2013-10-20 07:11:00,41.8,37.0,29.86,SSW,209,0.0,0.0,83,0.00,,---,0.00,0.00,VWS V14.01,2013-10-20 11:11:00,
2013-10-20 07:16:00,41.6,37.1,29.87,SSW,209,0.0,0.0,84,0.00,,---,0.00,5.00,VWS V14.01,2013-10-20 11:16:00,
2013-10-20 07:21:00,41.5,37.3,29.87,SSW,209,0.0,0.0,85,0.00,,---,0.00,7.00,VWS V14.01,2013-10-20 11:21:00,
2013-10-20 07:26:00,41.2,37.0,29.87,SSW,209,0.0,0.0,85,0.00,,---,0.00,9.00,VWS V14.01,2013-10-20 11:26:00,
2013-10-20 07:30:00,43.4,38.0,29.85,West,279,0.0,2.0,81,0.00,,---,0.00,0.00,VWS V14.01,2013-10-20 11:30:00,
2013-10-20 07:31:00,41.0,36.8,29.88,SSW,209,0.0,0.0,85,0.00,,---,0.00,11.00,VWS V14.01,2013-10-20 11:31:00,
2013-10-20 07:36:00,40.8,36.9,29.88,SSW,209,0.0,0.0,86,0.00,,---,0.00,12.00,VWS V14.01,2013-10-20 11:36:00,
2013-10-20 07:41:00,40.8,36.9,29.89,SSW,209,0.0,0.0,86,0.00,,---,0.00,16.00,VWS V14.01,2013-10-20 11:41:00,
2013-10-20 07:46:00,40.9,37.0,29.89,SSW,209,0.0,0.0,86,0.00,,---,0.00,33.00,VWS V14.01,2013-10-20 11:46:00,
2013-10-20 07:51:00,41.0,37.4,29.89,SSW,209,0.0,0.0,87,0.00,,---,0.00,46.00,VWS V14.01,2013-10-20 11:51:00,
2013-10-20 07:56:00,41.6,37.7,29.90,SSW,209,0.0,0.0,86,0.00,,---,0.00,58.00,VWS V14.01,2013-10-20 11:56:00,
2013-10-20 08:00:00,42.2,37.4,29.86,SSW,209,0.0,1.0,83,0.00,,---,0.00,0.00,VWS V14.01,2013-10-20 12:00:00,
2013-10-20 08:01:00,42.2,38.0,29.90,SSW,209,0.0,0.0,85,0.00,,---,0.00,72.00,VWS V14.01,2013-10-20 12:01:00,
2013-10-20 08:06:00,42.8,38.3,29.90,SSW,209,0.0,0.0,84,0.00,,---,0.00,83.00,VWS V14.01,2013-10-20 12:06:00,
2013-10-20 08:11:00,43.4,38.3,29.90,SSW,209,0.0,0.0,82,0.00,,---,0.00,98.00,VWS V14.01,2013-10-20 12:11:00,
2013-10-20 08:16:00,44.2,38.4,29.91,SSW,209,0.0,0.0,80,0.00,,---,0.00,113.00,VWS V14.01,2013-10-20 12:16:00,
2013-10-20 08:21:00,45.1,39.0,29.91,SSW,209,0.0,0.0,79,0.00,,---,0.00,128.00,VWS V14.01,2013-10-20 12:21:00,
2013-10-20 08:26:00,45.7,38.6,29.91,SW,219,0.0,4.0,76,0.00,,---,0.00,144.00,VWS V14.01,2013-10-20 12:26:00,
2013-10-20 08:30:00,41.1,36.9,29.88,SSW,209,0.0,0.0,85,0.00,,---,0.00,11.00,VWS V14.01,2013-10-20 12:30:00,
2013-10-20 08:31:00,46.4,39.3,29.91,SW,219,0.0,0.0,76,0.00,,---,0.00,162.00,VWS V14.01,2013-10-20 12:31:00,
2013-10-20 08:36:00,46.9,39.4,29.92,SW,219,0.0,0.0,75,0.00,,---,0.00,176.00,VWS V14.01,2013-10-20 12:36:00,
2013-10-20 08:41:00,47.5,40.0,29.92,SW,219,0.0,0.0,75,0.00,,---,0.00,193.00,VWS V14.01,2013-10-20 12:41:00,
2013-10-20 08:46:00,48.0,39.8,29.92,SW,219,0.0,0.0,73,0.00,,---,0.00,211.00,VWS V14.01,2013-10-20 12:46:00,
2013-10-20 08:51:00,48.7,39.4,29.92,SW,219,0.0,0.0,70,0.00,,---,0.00,227.00,VWS V14.01,2013-10-20 12:51:00,
2013-10-20 08:56:00,49.0,39.3,29.92,SW,224,0.0,2.0,69,0.00,,---,0.00,243.00,VWS V14.01,2013-10-20 12:56:00,
2013-10-20 09:00:00,42.1,37.9,29.90,SSW,209,0.0,0.0,85,0.00,,---,0.00,69.00,VWS V14.01,2013-10-20 13:00:00,
2013-10-20 09:01:00,49.0,39.7,29.92,SW,224,0.0,0.0,70,0.00,,---,0.00,258.00,VWS V14.01,2013-10-20 13:01:00,
2013-10-20 09:06:00,49.4,40.4,29.93,SW,224,0.0,0.0,71,0.00,,---,0.00,271.00,VWS V14.01,2013-10-20 13:06:00,
2013-10-20 09:11:00,49.7,39.2,29.93,West,274,2.0,3.0,67,0.00,,---,0.00,287.00,VWS V14.01,2013-10-20 13:11:00,
2013-10-20 09:16:00,50.1,39.2,29.93,WNW,284,0.0,4.0,66,0.00,,---,0.00,301.00,VWS V14.01,2013-10-20 13:16:00,
2013-10-20 09:21:00,50.3,39.0,29.93,WSW,254,0.0,9.0,65,0.00,,---,0.00,315.00,VWS V14.01,2013-10-20 13:21:00,
2013-10-20 09:26:00,50.8,39.5,29.93,WNW,293,0.0,9.0,65,0.00,,---,0.00,329.00,VWS V14.01,2013-10-20 13:26:00,
2013-10-20 09:30:00,46.3,38.8,29.91,SW,219,0.0,4.0,75,0.00,,---,0.00,158.00,VWS V14.01,2013-10-20 13:30:00,
2013-10-20 09:31:00,51.2,39.0,29.93,WSW,252,2.0,4.0,63,0.00,,---,0.00,343.00,VWS V14.01,2013-10-20 13:31:00,
2013-10-20 09:36:00,51.3,39.2,29.93,West,261,5.0,7.0,63,0.00,,---,0.00,353.00,VWS V14.01,2013-10-20 13:36:00,
2013-10-20 09:41:00,51.7,39.5,29.94,ENE,61,2.0,7.0,63,0.00,,---,0.00,364.00,VWS V14.01,2013-10-20 13:41:00,
2013-10-20 09:46:00,51.7,39.1,29.94,NW,311,7.0,11.0,62,0.00,,---,0.00,380.00,VWS V14.01,2013-10-20 13:46:00,
2013-10-20 09:51:00,51.9,38.5,29.94,WSW,248,3.0,11.0,60,0.00,,---,0.00,390.00,VWS V14.01,2013-10-20 13:51:00,
2013-10-20 09:55:00,52.2,39.2,29.94,West,274,4.0,11.0,61,0.00,,---,0.00,403.00,VWS V14.01,2013-10-20 13:55:00,
2013-10-20 10:00:00,52.5,39.5,29.94,West,271,2.0,5.0,61,0.00,,---,0.00,417.00,VWS V14.01,2013-10-20 14:00:00,
2013-10-20 10:05:00,52.5,39.0,29.94,West,281,2.0,7.0,60,0.00,,---,0.00,427.00,VWS V14.01,2013-10-20 14:05:00,
2013-10-20 10:11:00,52.7,38.3,29.94,West,269,6.0,12.0,58,0.00,,---,0.00,439.00,VWS V14.01,2013-10-20 14:11:00,
2013-10-20 10:15:00,53.0,38.2,29.94,WNW,286,2.0,12.0,57,0.00,,---,0.00,448.00,VWS V14.01,2013-10-20 14:15:00,
2013-10-20 10:20:00,53.1,37.8,29.94,West,261,3.0,12.0,56,0.00,,---,0.00,459.00,VWS V14.01,2013-10-20 14:20:00,
2013-10-20 10:25:00,53.1,38.3,29.94,West,259,4.0,12.0,57,0.00,,---,0.00,478.00,VWS V14.01,2013-10-20 14:25:00,
2013-10-20 10:30:00,53.3,38.9,29.94,West,271,1.0,4.0,58,0.00,,---,0.00,496.00,VWS V14.01,2013-10-20 14:30:00,
2013-10-20 10:35:00,53.8,38.0,29.93,West,264,0.0,9.0,55,0.00,,---,0.00,490.00,VWS V14.01,2013-10-20 14:35:00,
2013-10-20 10:40:00,53.9,39.0,29.93,South,187,1.0,9.0,57,0.00,,---,0.00,515.00,VWS V14.01,2013-10-20 14:40:00,
2013-10-20 10:45:00,54.0,37.8,29.94,SW,228,7.0,14.0,54,0.00,,---,0.00,512.00,VWS V14.01,2013-10-20 14:45:00,
2013-10-20 10:50:00,54.0,38.7,29.94,West,264,2.0,14.0,56,0.00,,---,0.00,519.00,VWS V14.01,2013-10-20 14:50:00,
2013-10-20 10:55:00,54.0,38.7,29.94,WNW,282,0.0,14.0,56,0.00,,---,0.00,526.00,VWS V14.01,2013-10-20 14:55:00,
2013-10-20 11:00:00,54.5,40.0,29.94,WSW,257,5.0,5.0,58,0.00,,---,0.00,533.00,VWS V14.01,2013-10-20 15:00:00,
2013-10-20 11:05:00,54.7,38.9,29.94,WNW,284,5.0,13.0,55,0.00,,---,0.00,555.00,VWS V14.01,2013-10-20 15:05:00,
2013-10-20 11:10:00,54.9,38.6,29.94,WNW,288,1.0,13.0,54,0.00,,---,0.00,573.00,VWS V14.01,2013-10-20 15:10:00,
2013-10-20 11:15:00,55.3,38.5,29.94,West,264,5.0,13.0,53,0.00,,---,0.00,577.00,VWS V14.01,2013-10-20 15:15:00,
2013-10-20 11:20:00,55.2,38.4,29.94,WNW,283,6.0,13.0,53,0.00,,---,0.00,552.00,VWS V14.01,2013-10-20 15:20:00,
2013-10-20 11:25:00,55.2,37.9,29.95,West,281,6.0,13.0,52,0.00,,---,0.00,566.00,VWS V14.01,2013-10-20 15:25:00,
2013-10-20 11:30:00,55.1,38.8,29.94,SW,223,0.0,0.0,54,0.00,,---,0.00,573.00,VWS V14.01,2013-10-20 15:30:00,
2013-10-20 11:35:00,55.3,38.0,29.94,West,279,4.0,12.0,52,0.00,,---,0.00,585.00,VWS V14.01,2013-10-20 15:35:00,
2013-10-20 11:40:00,55.6,38.8,29.94,West,281,2.0,12.0,53,0.00,,---,0.00,621.00,VWS V14.01,2013-10-20 15:40:00,
2013-10-20 11:45:00,56.0,37.1,29.94,WNW,298,3.0,12.0,49,0.00,,---,0.00,589.00,VWS V14.01,2013-10-20 15:45:00,
2013-10-20 11:50:00,56.1,38.7,29.94,WSW,245,0.0,12.0,52,0.00,,---,0.00,589.00,VWS V14.01,2013-10-20 15:50:00,
2013-10-20 11:55:00,56.4,38.0,29.94,NNE,23,0.0,12.0,50,0.00,,---,0.00,638.00,VWS V14.01,2013-10-20 15:55:00,
2013-10-20 12:00:00,56.4,39.0,29.94,NW,309,1.0,4.0,52,0.00,,---,0.00,603.00,VWS V14.01,2013-10-20 16:00:00,
2013-10-20 12:05:00,56.4,38.0,29.94,West,259,10.0,12.0,50,0.00,,---,0.00,603.00,VWS V14.01,2013-10-20 16:05:00,
2013-10-20 12:10:00,56.4,37.0,29.94,SW,223,0.0,12.0,48,0.00,,---,0.00,612.00,VWS V14.01,2013-10-20 16:10:00,
2013-10-20 12:15:00,56.8,37.9,29.94,WSW,250,5.0,12.0,49,0.00,,---,0.00,613.00,VWS V14.01,2013-10-20 16:15:00,
2013-10-20 12:20:00,57.1,38.7,29.94,WSW,252,6.0,12.0,50,0.00,,---,0.00,619.00,VWS V14.01,2013-10-20 16:20:00,
2013-10-20 12:25:00,57.4,37.3,29.94,WNW,283,7.0,12.0,47,0.00,,---,0.00,617.00,VWS V14.01,2013-10-20 16:25:00,
2013-10-20 12:30:00,57.4,37.3,29.94,West,273,5.0,10.0,47,0.00,,---,0.00,615.00,VWS V14.01,2013-10-20 16:30:00,
2013-10-20 12:35:00,57.5,37.5,29.94,SW,227,4.0,10.0,47,0.00,,---,0.00,585.00,VWS V14.01,2013-10-20 16:35:00,
2013-10-20 12:36:00,57.5,37.5,29.94,West,276,7.0,10.0,47,0.00,,---,0.00,555.00,VWS V14.01,2013-10-20 16:36:00,
2013-10-20 12:41:00,57.6,37.0,29.94,ENE,62,3.0,10.0,46,0.00,,---,0.00,520.00,VWS V14.01,2013-10-20 16:41:00,
2013-10-20 12:46:00,57.8,36.6,29.94,West,269,4.0,10.0,45,0.00,,---,0.00,353.00,VWS V14.01,2013-10-20 16:46:00,
2013-10-20 12:51:00,57.9,38.3,29.94,WNW,282,7.0,10.0,48,0.00,,---,0.00,424.00,VWS V14.01,2013-10-20 16:51:00,
2013-10-20 12:56:00,57.9,37.3,29.94,NNW,329,7.0,10.0,46,0.00,,---,0.00,90.00,VWS V14.01,2013-10-20 16:56:00,
2013-10-20 13:00:00,56.4,39.0,29.94,SW,235,4.0,14.0,52,0.00,,---,0.00,603.00,VWS V14.01,2013-10-20 17:00:00,
2013-10-20 13:01:00,57.7,36.5,29.94,West,278,3.0,5.0,45,0.00,,---,0.00,401.00,VWS V14.01,2013-10-20 17:01:00,
2013-10-20 13:12:00,57.7,36.5,29.94,West,269,0.0,5.0,45,0.00,,---,0.00,401.00,VWS V14.01,2013-10-20 17:12:00,
2013-10-20 13:17:00,58.6,36.8,29.94,WSW,257,3.0,5.0,44,0.00,,---,0.00,612.00,VWS V14.01,2013-10-20 17:17:00,
2013-10-20 13:22:00,59.0,37.1,29.93,NE,40,0.0,6.0,44,0.00,,---,0.00,629.00,VWS V14.01,2013-10-20 17:22:00,
2013-10-20 13:27:00,59.3,36.2,29.94,West,280,3.0,7.0,42,0.00,,---,0.00,633.00,VWS V14.01,2013-10-20 17:27:00,
2013-10-20 13:30:00,57.4,38.4,29.94,West,267,10.0,12.0,49,0.00,,---,0.00,615.00,VWS V14.01,2013-10-20 17:30:00,
2013-10-20 13:32:00,59.5,36.4,29.94,ENE,64,0.0,5.0,42,0.00,,---,0.00,613.00,VWS V14.01,2013-10-20 17:32:00,
2013-10-20 13:37:00,59.9,36.2,29.94,West,270,4.0,10.0,41,0.00,,---,0.00,626.00,VWS V14.01,2013-10-20 17:37:00,
2013-10-20 13:42:00,59.5,36.4,29.94,West,281,4.0,10.0,42,0.00,,---,0.00,601.00,VWS V14.01,2013-10-20 17:42:00,
2013-10-20 13:47:00,59.5,35.8,29.94,WSW,240,5.0,13.0,41,0.00,,---,0.00,596.00,VWS V14.01,2013-10-20 17:47:00,
2013-10-20 13:52:00,59.5,35.8,29.94,West,263,2.0,13.0,41,0.00,,---,0.00,91.00,VWS V14.01,2013-10-20 17:52:00,
2013-10-20 13:57:00,59.0,35.3,29.93,West,277,4.0,13.0,41,0.00,,---,0.00,582.00,VWS V14.01,2013-10-20 17:57:00,
2013-10-20 14:00:00,57.7,37.1,29.94,SSE,158,0.0,10.0,46,0.00,,---,0.00,424.00,VWS V14.01,2013-10-20 18:00:00,
2013-10-20 14:02:00,59.1,35.4,29.93,WSW,252,0.0,12.0,41,0.00,,---,0.00,563.00,VWS V14.01,2013-10-20 18:02:00,
2013-10-20 14:07:00,59.7,36.6,29.93,NNE,30,2.0,12.0,42,0.00,,---,0.00,561.00,VWS V14.01,2013-10-20 18:07:00,
2013-10-20 14:12:00,60.2,36.4,29.93,West,265,1.0,12.0,41,0.00,,---,0.00,552.00,VWS V14.01,2013-10-20 18:12:00,
2013-10-20 14:17:00,60.2,36.4,29.94,WSW,258,4.0,12.0,41,0.00,,---,0.00,568.00,VWS V14.01,2013-10-20 18:17:00,
2013-10-20 14:22:00,60.3,37.1,29.93,West,264,2.0,12.0,42,0.00,,---,0.00,554.00,VWS V14.01,2013-10-20 18:22:00,
2013-10-20 14:27:00,60.5,36.7,29.93,NW,309,4.0,12.0,41,0.00,,---,0.00,606.00,VWS V14.01,2013-10-20 18:27:00,
2013-10-20 14:30:00,59.3,36.8,29.94,NNW,336,5.0,7.0,43,0.00,,---,0.00,631.00,VWS V14.01,2013-10-20 18:30:00,
2013-10-20 14:32:00,60.8,37.0,29.93,WSW,240,0.0,4.0,41,0.00,,---,0.00,613.00,VWS V14.01,2013-10-20 18:32:00,
2013-10-20 14:37:00,60.6,36.8,29.93,WSW,250,4.0,10.0,41,0.00,,---,0.00,517.00,VWS V14.01,2013-10-20 18:37:00,
2013-10-20 14:42:00,60.3,37.1,29.94,ENE,67,0.0,12.0,42,0.00,,---,0.00,77.00,VWS V14.01,2013-10-20 18:42:00,
2013-10-20 14:47:00,59.6,36.5,29.93,WNW,289,0.0,12.0,42,0.00,,---,0.00,503.00,VWS V14.01,2013-10-20 18:47:00,
2013-10-20 14:52:00,60.0,36.2,29.94,ENE,62,0.0,13.0,41,0.00,,---,0.00,517.00,VWS V14.01,2013-10-20 18:52:00,
2013-10-20 14:57:00,60.4,37.2,29.94,WSW,244,0.0,13.0,42,0.00,,---,0.00,526.00,VWS V14.01,2013-10-20 18:57:00,
2013-10-20 15:00:00,59.0,36.0,29.93,SW,235,5.0,13.0,42,0.00,,---,0.00,566.00,VWS V14.01,2013-10-20 19:00:00,
2013-10-20 15:02:00,60.7,36.9,29.94,West,261,3.0,5.0,41,0.00,,---,0.00,123.00,VWS V14.01,2013-10-20 19:02:00,
2013-10-20 15:07:00,60.3,35.9,29.94,West,265,0.0,9.0,40,0.00,,---,0.00,476.00,VWS V14.01,2013-10-20 19:07:00,
2013-10-20 15:12:00,60.7,38.1,29.94,NW,324,4.0,9.0,43,0.00,,---,0.00,83.00,VWS V14.01,2013-10-20 19:12:00,
2013-10-20 15:17:00,60.3,38.3,29.94,West,274,0.0,9.0,44,0.00,,---,0.00,438.00,VWS V14.01,2013-10-20 19:17:00,
2013-10-20 15:22:00,60.3,37.1,29.94,WNW,302,6.0,9.0,42,0.00,,---,0.00,418.00,VWS V14.01,2013-10-20 19:22:00,
2013-10-20 15:27:00,60.2,37.6,29.94,WNW,289,7.0,10.0,43,0.00,,---,0.00,404.00,VWS V14.01,2013-10-20 19:27:00,
2013-10-20 15:30:00,60.8,37.0,29.93,WNW,292,1.0,12.0,41,0.00,,---,0.00,613.00,VWS V14.01,2013-10-20 19:30:00,
2013-10-20 15:32:00,59.2,36.7,29.94,West,265,8.0,8.0,43,0.00,,---,0.00,315.00,VWS V14.01,2013-10-20 19:32:00,
2013-10-20 15:37:00,59.2,37.3,29.95,West,278,3.0,8.0,44,0.00,,---,0.00,383.00,VWS V14.01,2013-10-20 19:37:00,
2013-10-20 15:42:00,59.5,37.6,29.95,NW,323,0.0,8.0,44,0.00,,---,0.00,362.00,VWS V14.01,2013-10-20 19:42:00,
2013-10-20 15:47:00,60.1,37.5,29.95,West,266,0.0,8.0,43,0.00,,---,0.00,373.00,VWS V14.01,2013-10-20 19:47:00,
2013-10-20 15:52:00,59.5,37.0,29.95,NW,315,4.0,8.0,43,0.00,,---,0.00,336.00,VWS V14.01,2013-10-20 19:52:00,
2013-10-20 15:57:00,59.4,36.9,29.95,SSW,207,0.0,8.0,43,0.00,,---,0.00,325.00,VWS V14.01,2013-10-20 19:57:00,
2013-10-20 16:00:00,60.7,36.9,29.94,WNW,284,0.0,13.0,41,0.00,,---,0.00,541.00,VWS V14.01,2013-10-20 20:00:00,
2013-10-20 16:02:00,59.5,37.6,29.95,ESE,102,0.0,1.0,44,0.00,,---,0.00,315.00,VWS V14.01,2013-10-20 20:02:00,
2013-10-20 16:07:00,59.5,37.0,29.95,WNW,295,1.0,8.0,43,0.00,,---,0.00,306.00,VWS V14.01,2013-10-20 20:07:00,
2013-10-20 16:12:00,59.4,36.3,29.95,WNW,287,1.0,10.0,42,0.00,,---,0.00,292.00,VWS V14.01,2013-10-20 20:12:00,
2013-10-20 16:17:00,59.4,36.9,29.95,West,262,3.0,10.0,43,0.00,,---,0.00,278.00,VWS V14.01,2013-10-20 20:17:00,
2013-10-20 16:22:00,59.3,36.2,29.95,WNW,291,7.0,11.0,42,0.00,,---,0.00,257.00,VWS V14.01,2013-10-20 20:22:00,
2013-10-20 16:30:00,59.6,37.1,29.94,WNW,287,5.0,10.0,43,0.00,,---,0.00,105.00,VWS V14.01,2013-10-20 20:30:00,
2013-10-20 16:36:00,59.3,35.6,29.95,WSW,244,4.0,11.0,41,0.00,,---,0.00,239.00,VWS V14.01,2013-10-20 20:36:00,
2013-10-20 16:41:00,59.0,35.3,29.96,WNW,300,6.0,11.0,41,0.00,,---,0.00,118.00,VWS V14.01,2013-10-20 20:41:00,
2013-10-20 16:46:00,58.8,35.8,29.96,West,278,0.0,11.0,42,0.00,,---,0.00,72.00,VWS V14.01,2013-10-20 20:46:00,
2013-10-20 16:51:00,58.6,36.8,29.97,SSW,204,1.0,11.0,44,0.00,,---,0.00,47.00,VWS V14.01,2013-10-20 20:51:00,
2013-10-20 16:56:00,58.3,36.5,29.97,West,265,5.0,11.0,44,0.00,,---,0.00,39.00,VWS V14.01,2013-10-20 20:56:00,
2013-10-20 17:00:00,59.5,37.0,29.95,East,92,0.0,10.0,43,0.00,,---,0.00,320.00,VWS V14.01,2013-10-20 21:00:00,
2013-10-20 17:01:00,57.9,36.1,29.97,WNW,286,0.0,3.0,44,0.00,,---,0.00,33.00,VWS V14.01,2013-10-20 21:01:00,
2013-10-20 17:06:00,57.6,35.9,29.97,WSW,244,4.0,6.0,44,0.00,,---,0.00,25.00,VWS V14.01,2013-10-20 21:06:00,
2013-10-20 17:11:00,57.3,35.6,29.97,WNW,288,3.0,9.0,44,0.00,,---,0.00,25.00,VWS V14.01,2013-10-20 21:11:00,
2013-10-20 17:16:00,57.1,36.0,29.97,SSW,212,4.0,9.0,45,0.00,,---,0.00,21.00,VWS V14.01,2013-10-20 21:16:00,
2013-10-20 17:21:00,56.7,35.6,29.97,WNW,287,4.0,9.0,45,0.00,,---,0.00,19.00,VWS V14.01,2013-10-20 21:21:00,
2013-10-20 17:26:00,56.3,35.2,29.97,WNW,283,0.0,9.0,45,0.00,,---,0.00,18.00,VWS V14.01,2013-10-20 21:26:00,
2013-10-20 17:30:00,56.0,35.0,29.97,WNW,294,0.0,9.0,45,0.00,,---,0.00,16.00,VWS V15.00,2013-10-20 21:30:00,
2013-10-20 17:31:00,56.0,35.5,29.97,WNW,294,0.0,0.0,46,0.00,,---,0.00,16.00,VWS V14.01,2013-10-20 21:31:00,
2013-10-20 17:36:00,55.7,35.8,29.98,WNW,294,0.0,0.0,47,0.00,,---,0.00,14.00,VWS V14.01,2013-10-20 21:36:00,
2013-10-20 17:41:00,55.3,35.4,29.98,WNW,294,0.0,0.0,47,0.00,,---,0.00,12.00,VWS V14.01,2013-10-20 21:41:00,
2013-10-20 17:46:00,54.9,35.6,29.98,WNW,294,1.0,1.0,48,0.00,,---,0.00,11.00,VWS V14.01,2013-10-20 21:46:00,
2013-10-20 17:51:00,54.6,35.8,29.98,WNW,294,0.0,3.0,49,0.00,,---,0.00,9.00,VWS V14.01,2013-10-20 21:51:00,
2013-10-20 17:56:00,54.2,36.5,29.98,WNW,294,0.0,3.0,51,0.00,,---,0.00,5.00,VWS V14.01,2013-10-20 21:56:00,
2013-10-20 18:00:00,57.9,36.1,29.97,WNW,285,2.0,11.0,44,0.00,,---,0.00,37.00,VWS V14.01,2013-10-20 22:00:00,
2013-10-20 18:01:00,53.7,36.0,29.99,WNW,294,0.0,0.0,51,0.00,,---,0.00,0.00,VWS V14.01,2013-10-20 22:01:00,
2013-10-20 18:06:00,53.1,36.9,29.99,WNW,294,0.0,0.0,54,0.00,,---,0.00,0.00,VWS V14.01,2013-10-20 22:06:00,
2013-10-20 18:11:00,52.5,36.8,29.99,WNW,294,0.0,0.0,55,0.00,,---,0.00,0.00,VWS V14.01,2013-10-20 22:11:00,
2013-10-20 18:16:00,51.9,36.7,29.99,WNW,294,0.0,0.0,56,0.00,,---,0.00,0.00,VWS V14.01,2013-10-20 22:16:00,
2013-10-20 18:21:00,51.3,36.6,29.99,WNW,294,0.0,0.0,57,0.00,,---,0.00,0.00,VWS V14.01,2013-10-20 22:21:00,
2013-10-20 18:26:00,50.8,36.6,30.00,WNW,294,0.0,0.0,58,0.00,,---,0.00,0.00,VWS V14.01,2013-10-20 22:26:00,
2013-10-20 18:30:00,56.0,35.0,29.97,WNW,294,0.0,9.0,45,0.00,,---,0.00,16.00,VWS V14.01,2013-10-20 22:30:00,
2013-10-20 18:31:00,50.3,36.5,30.00,WNW,294,0.0,0.0,59,0.00,,---,0.00,0.00,VWS V14.01,2013-10-20 22:31:00,
2013-10-20 18:36:00,49.9,36.6,30.00,WNW,294,0.0,0.0,60,0.00,,---,0.00,0.00,VWS V14.01,2013-10-20 22:36:00,
2013-10-20 18:41:00,49.4,36.5,30.01,WNW,294,0.0,0.0,61,0.00,,---,0.00,0.00,VWS V14.01,2013-10-20 22:41:00,
2013-10-20 18:46:00,49.0,36.2,30.01,WNW,294,0.0,0.0,61,0.00,,---,0.00,0.00,VWS V14.01,2013-10-20 22:46:00,
2013-10-20 18:51:00,48.6,36.2,30.01,WNW,294,0.0,0.0,62,0.00,,---,0.00,0.00,VWS V14.01,2013-10-20 22:51:00,
2013-10-20 18:56:00,48.3,36.3,30.01,WNW,294,0.0,0.0,63,0.00,,---,0.00,0.00,VWS V14.01,2013-10-20 22:56:00,
2013-10-20 19:00:00,53.8,36.6,29.99,WNW,294,0.0,3.0,52,0.00,,---,0.00,5.00,VWS V14.01,2013-10-20 23:00:00,
2013-10-20 19:01:00,48.1,36.9,30.01,WNW,294,0.0,0.0,65,0.00,,---,0.00,0.00,VWS V14.01,2013-10-20 23:01:00,
2013-10-20 19:06:00,47.7,36.5,30.01,WNW,294,0.0,0.0,65,0.00,,---,0.00,0.00,VWS V14.01,2013-10-20 23:06:00,
2013-10-20 19:11:00,47.3,36.2,30.02,WNW,294,0.0,0.0,65,0.00,,---,0.00,0.00,VWS V14.01,2013-10-20 23:11:00,
2013-10-20 19:16:00,47.0,36.2,30.02,WNW,294,0.0,0.0,66,0.00,,---,0.00,0.00,VWS V14.01,2013-10-20 23:16:00,
2013-10-20 19:21:00,46.7,36.0,30.02,WNW,294,0.0,0.0,66,0.00,,---,0.00,0.00,VWS V14.01,2013-10-20 23:21:00,
2013-10-20 19:26:00,46.4,36.0,30.02,WNW,294,0.0,0.0,67,0.00,,---,0.00,0.00,VWS V14.01,2013-10-20 23:26:00,
2013-10-20 19:30:00,50.4,36.2,30.00,WNW,294,0.0,0.0,58,0.00,,---,0.00,0.00,VWS V14.01,2013-10-20 23:30:00,
2013-10-20 19:31:00,46.2,35.9,30.03,WNW,294,0.0,0.0,67,0.00,,---,0.00,0.00,VWS V14.01,2013-10-20 23:31:00,
2013-10-20 19:36:00,46.1,35.8,30.03,WNW,294,0.0,0.0,67,0.00,,---,0.00,0.00,VWS V14.01,2013-10-20 23:36:00,
2013-10-20 19:41:00,46.1,36.1,30.03,WNW,294,0.0,0.0,68,0.00,,---,0.00,0.00,VWS V14.01,2013-10-20 23:41:00,
2013-10-20 19:46:00,46.1,35.8,30.03,WNW,294,0.0,0.0,67,0.00,,---,0.00,0.00,VWS V14.01,2013-10-20 23:46:00,
2013-10-20 19:51:00,46.0,36.0,30.03,WNW,294,0.0,0.0,68,0.00,,---,0.00,0.00,VWS V14.01,2013-10-20 23:51:00,
2013-10-20 19:56:00,45.8,36.2,30.03,WNW,294,0.0,0.0,69,0.00,,---,0.00,0.00,VWS V14.01,2013-10-20 23:56:00,
2013-10-20 20:00:00,48.1,36.9,30.01,WNW,294,0.0,0.0,65,0.00,,---,0.00,0.00,VWS V14.01,2013-10-21 00:00:00,
2013-10-20 20:01:00,45.5,36.3,30.03,WNW,294,0.0,0.0,70,0.00,,---,0.00,0.00,VWS V14.01,2013-10-21 00:01:00,
2013-10-20 20:06:00,45.4,36.6,30.03,WNW,294,0.0,0.0,71,0.00,,---,0.00,0.00,VWS V14.01,2013-10-21 00:06:00,
2013-10-20 20:11:00,45.2,37.1,30.03,WNW,294,0.0,0.0,73,0.00,,---,0.00,0.00,VWS V14.01,2013-10-21 00:11:00,
2013-10-20 20:16:00,44.9,37.5,30.03,WNW,294,0.0,0.0,75,0.00,,---,0.00,0.00,VWS V14.01,2013-10-21 00:16:00,
2013-10-20 20:21:00,44.5,37.1,30.04,WNW,294,0.0,0.0,75,0.00,,---,0.00,0.00,VWS V14.01,2013-10-21 00:21:00,
2013-10-20 20:26:00,44.2,37.1,30.04,WNW,294,0.0,0.0,76,0.00,,---,0.00,0.00,VWS V14.01,2013-10-21 00:26:00,
2013-10-20 20:30:00,46.2,35.9,30.02,WNW,294,0.0,0.0,67,0.00,,---,0.00,0.00,VWS V14.01,2013-10-21 00:30:00,
2013-10-20 20:31:00,43.8,37.1,30.04,WNW,294,0.0,0.0,77,0.00,,---,0.00,0.00,VWS V14.01,2013-10-21 00:31:00,
2013-10-20 20:36:00,43.5,36.8,30.04,WNW,294,0.0,0.0,77,0.00,,---,0.00,0.00,VWS V14.01,2013-10-21 00:36:00,
2013-10-20 20:41:00,43.3,36.6,30.04,WNW,294,0.0,0.0,77,0.00,,---,0.00,0.00,VWS V14.01,2013-10-21 00:41:00,
2013-10-20 20:46:00,43.0,36.6,30.04,WNW,294,0.0,0.0,78,0.00,,---,0.00,0.00,VWS V14.01,2013-10-21 00:46:00,
2013-10-20 20:51:00,42.8,36.8,30.04,WNW,294,0.0,0.0,79,0.00,,---,0.00,0.00,VWS V14.01,2013-10-21 00:51:00,
2013-10-20 20:56:00,42.5,36.8,30.04,WNW,294,0.0,0.0,80,0.00,,---,0.00,0.00,VWS V14.01,2013-10-21 00:56:00,
2013-10-20 21:00:00,45.6,36.4,30.03,WNW,294,0.0,0.0,70,0.00,,---,0.00,0.00,VWS V14.01,2013-10-21 01:00:00,
2013-10-20 21:01:00,42.1,36.4,30.04,WNW,294,0.0,0.0,80,0.00,,---,0.00,0.00,VWS V14.01,2013-10-21 01:01:00,
2013-10-20 21:06:00,41.8,36.4,30.05,WNW,294,0.0,0.0,81,0.00,,---,0.00,0.00,VWS V14.01,2013-10-21 01:06:00,
2013-10-20 21:11:00,41.4,36.0,30.05,WNW,294,0.0,0.0,81,0.00,,---,0.00,0.00,VWS V14.01,2013-10-21 01:11:00,
2013-10-20 21:16:00,41.3,36.2,30.05,WNW,294,0.0,0.0,82,0.00,,---,0.00,0.00,VWS V14.01,2013-10-21 01:16:00,
2013-10-20 21:21:00,41.2,36.7,30.05,WNW,294,0.0,0.0,84,0.00,,---,0.00,0.00,VWS V14.01,2013-10-21 01:21:00,
2013-10-20 21:26:00,41.1,36.3,30.06,WNW,294,0.0,0.0,83,0.00,,---,0.00,0.00,VWS V14.01,2013-10-21 01:26:00,
2013-10-20 21:30:00,43.9,37.2,30.04,WNW,294,0.0,0.0,77,0.00,,---,0.00,0.00,VWS V14.01,2013-10-21 01:30:00,
2013-10-20 21:31:00,41.0,36.5,30.06,WNW,294,0.0,0.0,84,0.00,,---,0.00,0.00,VWS V14.01,2013-10-21 01:31:00,
2013-10-20 21:36:00,40.9,36.5,30.07,WNW,294,0.0,0.0,84,0.00,,---,0.00,0.00,VWS V14.01,2013-10-21 01:36:00,
2013-10-20 21:41:00,40.7,36.2,30.07,WNW,294,0.0,0.0,84,0.00,,---,0.00,0.00,VWS V14.01,2013-10-21 01:41:00,
2013-10-20 21:46:00,40.6,36.2,30.07,WNW,294,0.0,0.0,84,0.00,,---,0.00,0.00,VWS V14.01,2013-10-21 01:46:00,
2013-10-20 21:51:00,40.5,36.3,30.07,WNW,294,0.0,0.0,85,0.00,,---,0.00,0.00,VWS V14.01,2013-10-21 01:51:00,
2013-10-20 21:56:00,40.4,36.3,30.07,WNW,294,0.0,0.0,85,0.00,,---,0.00,0.00,VWS V14.01,2013-10-21 01:56:00,
2013-10-20 22:00:00,42.2,36.5,30.05,WNW,294,0.0,0.0,80,0.00,,---,0.00,0.00,VWS V14.01,2013-10-21 02:00:00,
2013-10-20 22:01:00,40.4,36.5,30.07,WNW,294,0.0,0.0,86,0.00,,---,0.00,0.00,VWS V14.01,2013-10-21 02:01:00,
2013-10-20 22:06:00,40.5,36.9,30.07,WNW,294,0.0,0.0,87,0.00,,---,0.00,0.00,VWS V14.01,2013-10-21 02:06:00,
2013-10-20 22:11:00,40.7,37.1,30.07,WNW,294,0.0,0.0,87,0.00,,---,0.00,0.00,VWS V14.01,2013-10-21 02:11:00,
2013-10-20 22:16:00,40.9,37.6,30.07,WNW,294,0.0,0.0,88,0.00,,---,0.00,0.00,VWS V14.01,2013-10-21 02:16:00,
2013-10-20 22:21:00,41.1,37.8,30.07,WNW,294,0.0,0.0,88,0.00,,---,0.00,0.00,VWS V14.01,2013-10-21 02:21:00,
2013-10-20 22:26:00,41.3,38.0,30.07,WNW,294,0.0,0.0,88,0.00,,---,0.00,0.00,VWS V14.01,2013-10-21 02:26:00,
2013-10-20 22:30:00,41.0,36.5,30.06,WNW,294,0.0,0.0,84,0.00,,---,0.00,0.00,VWS V14.01,2013-10-21 02:30:00,
2013-10-20 22:31:00,41.3,38.0,30.07,WNW,294,0.0,0.0,88,0.00,,---,0.00,0.00,VWS V14.01,2013-10-21 02:31:00,
2013-10-20 22:36:00,41.3,38.0,30.07,WNW,294,0.0,0.0,88,0.00,,---,0.00,0.00,VWS V14.01,2013-10-21 02:36:00,
2013-10-20 22:41:00,41.3,38.0,30.07,WNW,294,0.0,0.0,88,0.00,,---,0.00,0.00,VWS V14.01,2013-10-21 02:41:00,
2013-10-20 22:46:00,41.3,37.7,30.08,WNW,294,0.0,0.0,87,0.00,,---,0.00,0.00,VWS V14.01,2013-10-21 02:46:00,
2013-10-20 22:51:00,41.4,37.8,30.08,WNW,294,0.0,0.0,87,0.00,,---,0.00,0.00,VWS V14.01,2013-10-21 02:51:00,
2013-10-20 22:56:00,41.5,37.9,30.08,WNW,294,0.0,0.0,87,0.00,,---,0.00,0.00,VWS V14.01,2013-10-21 02:56:00,
2013-10-20 23:00:00,40.3,36.5,30.07,WNW,294,0.0,0.0,86,0.00,,---,0.00,0.00,VWS V14.01,2013-10-21 03:00:00,
2013-10-20 23:01:00,41.5,37.9,30.08,WNW,294,0.0,0.0,87,0.00,,---,0.00,0.00,VWS V14.01,2013-10-21 03:01:00,
2013-10-20 23:06:00,41.6,37.7,30.08,WNW,294,0.0,0.0,86,0.00,,---,0.00,0.00,VWS V14.01,2013-10-21 03:06:00,
2013-10-20 23:11:00,41.7,37.8,30.08,WNW,294,0.0,0.0,86,0.00,,---,0.00,0.00,VWS V14.01,2013-10-21 03:11:00,
2013-10-20 23:16:00,41.8,37.6,30.08,WNW,294,0.0,0.0,85,0.00,,---,0.00,0.00,VWS V14.01,2013-10-21 03:16:00,
2013-10-20 23:21:00,41.8,37.6,30.08,WNW,294,0.0,0.0,85,0.00,,---,0.00,0.00,VWS V14.01,2013-10-21 03:21:00,
2013-10-20 23:26:00,41.8,37.6,30.08,WNW,294,0.0,0.0,85,0.00,,---,0.00,0.00,VWS V14.01,2013-10-21 03:26:00,
2013-10-20 23:30:00,41.3,38.0,30.07,WNW,294,0.0,0.0,88,0.00,,---,0.00,0.00,VWS V14.01,2013-10-21 03:30:00,
2013-10-20 23:31:00,41.8,37.9,30.08,WNW,294,0.0,0.0,86,0.00,,---,0.00,0.00,VWS V14.01,2013-10-21 03:31:00,
2013-10-20 23:36:00,41.6,37.7,30.08,WNW,294,0.0,0.0,86,0.00,,---,0.00,0.00,VWS V14.01,2013-10-21 03:36:00,
2013-10-20 23:41:00,41.5,37.6,30.08,WNW,294,0.0,0.0,86,0.00,,---,0.00,0.00,VWS V14.01,2013-10-21 03:41:00,
2013-10-20 23:46:00,41.3,37.4,30.08,WNW,294,0.0,0.0,86,0.00,,---,0.00,0.00,VWS V14.01,2013-10-21 03:46:00,
2013-10-20 23:51:00,41.3,37.4,30.08,WNW,294,0.0,0.0,86,0.00,,---,0.00,0.00,VWS V14.01,2013-10-21 03:51:00,
2013-10-20 23:56:00,41.2,37.3,30.08,WNW,294,0.0,0.0,86,0.00,,---,0.00,0.00,VWS V14.01,2013-10-21 03:56:00,